This is the latest recevied weather packets stored in our database for station/object GW1469. If no packets are shown the sender has not sent any weather packets the latest 10 day(s).
| Time | Temp. | Humidity | Pressure | Rain* | Wind** | Luminosity | Snow |
|---|---|---|---|---|---|---|---|
| 1777349561 | 17.22° C | 60% | 1026.4 hPa | 0 mm | - | - | - |
| 1777348490 | 17.22° C | 59% | 1026.7 hPa | 0 mm | - | - | - |
| 1777347395 | 17.78° C | 58% | 1026.7 hPa | 0 mm | - | - | - |
| 1777346688 | 17.78° C | 56% | 1026.7 hPa | 0 mm | - | - | - |
| 1777343791 | 18.89° C | 53% | 1026.7 hPa | 0 mm | - | - | - |
| 1777340930 | 20° C | 51% | 1026.4 hPa | 0 mm | - | - | - |
| 1777340547 | 20° C | 49% | 1026.4 hPa | 0 mm | - | - | - |
| 1777340207 | 20° C | 49% | 1026.4 hPa | 0 mm | - | - | - |
| 1777337298 | 21.67° C | 45% | 1025.7 hPa | 0 mm | - | - | - |
| 1777335890 | 22.78° C | 44% | 1025.7 hPa | 0 mm | - | - | - |
| 1777332627 | 24.44° C | 43% | 1025.7 hPa | 0 mm | - | - | - |
| 1777330491 | 25.56° C | 43% | 1025.7 hPa | 0 mm | - | - | - |
| 1777326861 | 27.22° C | 37% | 1026 hPa | 0 mm | - | - | - |
| 1777326171 | 26.67° C | 38% | 1026 hPa | 0 mm | - | - | - |
| 1777322919 | 27.22° C | 34% | 1026 hPa | 0 mm | - | - | - |
| 1777320052 | 28.89° C | 28% | 1026.4 hPa | 0 mm | - | - | - |
| 1777318247 | 27.78° C | 37% | 1026.7 hPa | 0 mm | - | - | - |
| 1777314287 | 26.67° C | 42% | 1027.7 hPa | 0 mm | - | - | - |
| 1777313213 | 26.67° C | 44% | 1027.7 hPa | 0 mm | - | - | - |
| 1777307091 | 25° C | 52% | 1028.7 hPa | 0 mm | - | - | - |
| 1777305250 | 22.22° C | 56% | 1029.1 hPa | 0 mm | - | - | - |
| 1777303133 | 20.56° C | 59% | 1029.4 hPa | 0 mm | - | - | - |
| 1777302731 | 21.11° C | 61% | 1029.4 hPa | 0 mm | - | - | - |
| 1777301295 | 19.44° C | 63% | 1029.4 hPa | 0 mm | - | - | - |
| 1777300948 | 18.89° C | 65% | 1029.4 hPa | 0 mm | - | - | - |
* Rain since midnight (hover to see other rain measurements)
** Current wind speed in m/s (hover to see current wind gust speed)